Terminal Aerodrome Forecast
Issued by NWS St Louis, MO

Home | Current Version | Previous Version | Graphics & Text | Print | Product List | Glossary On
Versions: 1 2 3 4 5 6 7 8 9 10 11 12 13 14 15 16 17 18 19 20 21
000
FTUS43 KLSX 250900 AAA
TAFCOU
TAF AMD
KCOU 250909Z 2509/2606 23008KT P6SM -RA OVC035
     FM251300 26012KT P6SM -RA OVC012
     FM251500 30015G23KT P6SM -RA OVC007
     FM252200 34015G25KT 2SM -SN BR OVC007
     FM260000 35012KT P6SM OVC010=

USA.gov is the U.S. government's official web portal to all federal, state and local government web resources and services.